createdAt,value
2024-05-09T00:01:55.594Z,101737.48
2024-05-09T00:04:26.701Z,101734.15
2024-05-09T00:06:57.869Z,101737.48
2024-05-09T00:09:29.029Z,101739.17
2024-05-09T00:12:00.354Z,101733.80
2024-05-09T00:14:31.661Z,101728.48
2024-05-09T00:17:02.832Z,101731.88
2024-05-09T00:19:34.422Z,101730.00
2024-05-09T00:22:06.004Z,101734.55
2024-05-09T00:24:37.498Z,101740.50
2024-05-09T00:27:09.994Z,101740.04
2024-05-09T00:29:42.441Z,101739.03
2024-05-09T00:32:13.652Z,101740.27
2024-05-09T00:34:44.871Z,101741.79
2024-05-09T00:37:16.246Z,101742.80
2024-05-09T00:39:47.527Z,101745.16
2024-05-09T00:42:18.716Z,101744.98
2024-05-09T00:44:50.066Z,101746.55
2024-05-09T00:47:21.446Z,101744.05
2024-05-09T00:49:52.620Z,101744.75
2024-05-09T00:52:24.881Z,101747.16
2024-05-09T00:54:57.099Z,101743.63
2024-05-09T00:57:28.912Z,101743.20
2024-05-09T01:00:01.689Z,101743.98
2024-05-09T01:02:33.274Z,101742.08
2024-05-09T01:05:05.040Z,101743.77
2024-05-09T01:07:36.260Z,101743.73
2024-05-09T01:10:14.115Z,101735.52
2024-05-09T01:12:52.014Z,101736.43
2024-05-09T01:15:23.077Z,101739.95
2024-05-09T01:17:55.512Z,101744.45
2024-05-09T01:20:37.223Z,101741.81
2024-05-09T01:23:15.366Z,101741.09
2024-05-09T01:25:47.029Z,101745.08
2024-05-09T01:28:18.712Z,101746.49
2024-05-09T01:30:50.004Z,101742.55
2024-05-09T01:33:21.242Z,101734.20
2024-05-09T01:35:52.494Z,101734.56
2024-05-09T01:38:23.674Z,101734.94
2024-05-09T01:40:55.088Z,101737.48
2024-05-09T01:43:26.192Z,101739.99
2024-05-09T01:45:57.345Z,101736.63
2024-05-09T01:48:28.603Z,101742.33
2024-05-09T01:50:59.831Z,101741.04
2024-05-09T01:53:31.182Z,101741.09
2024-05-09T01:56:02.374Z,101738.32
2024-05-09T01:58:33.624Z,101738.80
2024-05-09T02:01:05.327Z,101741.20
2024-05-09T02:03:36.584Z,101738.34
2024-05-09T02:06:08.378Z,101737.41
2024-05-09T02:08:40.643Z,101735.91
2024-05-09T02:11:12.076Z,101729.92
2024-05-09T02:13:44.309Z,101729.20
2024-05-09T02:16:15.516Z,101730.59
2024-05-09T02:18:46.645Z,101729.23
2024-05-09T02:21:17.803Z,101728.90
2024-05-09T02:23:48.895Z,101725.52
2024-05-09T02:26:20.044Z,101729.75
2024-05-09T02:28:51.199Z,101727.73
2024-05-09T02:31:22.529Z,101727.02
2024-05-09T02:33:53.944Z,101730.75
2024-05-09T02:36:25.179Z,101730.45
2024-05-09T02:38:56.287Z,101732.08
2024-05-09T02:41:27.751Z,101729.20
2024-05-09T02:43:58.957Z,101732.11
2024-05-09T02:46:30.109Z,101730.48
2024-05-09T02:49:01.408Z,101734.23
2024-05-09T02:51:32.688Z,101735.21
2024-05-09T02:54:03.833Z,101736.23
2024-05-09T02:56:34.967Z,101737.39
2024-05-09T02:59:06.192Z,101734.88
2024-05-09T03:01:37.607Z,101733.33
2024-05-09T03:04:08.985Z,101735.61
2024-05-09T03:06:42.942Z,101738.42
2024-05-09T03:09:14.116Z,101734.66
2024-05-09T03:11:45.836Z,101736.77
2024-05-09T03:14:19.384Z,101735.84
2024-05-09T03:16:50.602Z,101741.41
2024-05-09T03:19:22.083Z,101742.44
2024-05-09T03:21:53.335Z,101749.17
2024-05-09T03:24:24.671Z,101749.89
2024-05-09T03:26:55.985Z,101750.21
2024-05-09T03:29:27.251Z,101748.12
2024-05-09T03:31:59.087Z,101747.92
2024-05-09T03:34:30.336Z,101746.74
2024-05-09T03:37:01.484Z,101747.39
2024-05-09T03:39:32.704Z,101745.66
2024-05-09T03:42:04.192Z,101742.52
2024-05-09T03:44:35.422Z,101735.95
2024-05-09T03:47:06.826Z,101732.15
2024-05-09T03:49:38.069Z,101729.59
2024-05-09T03:52:09.505Z,101728.55
2024-05-09T03:54:47.191Z,101730.46
2024-05-09T03:57:18.390Z,101727.66
2024-05-09T03:59:49.676Z,101727.88
2024-05-09T04:02:21.091Z,101733.14
2024-05-09T04:04:52.451Z,101731.75
2024-05-09T04:07:23.968Z,101740.42
2024-05-09T04:09:54.987Z,101744.88
2024-05-09T04:12:26.327Z,101744.28
2024-05-09T04:14:57.505Z,101743.93
2024-05-09T04:17:28.977Z,101744.67
2024-05-09T04:20:00.393Z,101747.26
2024-05-09T04:22:31.723Z,101746.52
2024-05-09T04:25:02.822Z,101750.48
2024-05-09T04:27:34.080Z,101744.91
2024-05-09T04:30:09.873Z,101745.83
2024-05-09T04:32:44.030Z,101745.39
2024-05-09T04:35:18.138Z,101749.29
2024-05-09T04:37:49.540Z,101749.10
2024-05-09T04:40:28.299Z,101746.66
2024-05-09T04:43:06.042Z,101743.90
2024-05-09T04:45:40.004Z,101743.39
2024-05-09T04:48:11.957Z,101741.20
2024-05-09T04:50:43.627Z,101745.98
2024-05-09T04:53:17.535Z,101744.97
2024-05-09T04:55:48.838Z,101745.85
2024-05-09T04:58:20.010Z,101742.91
2024-05-09T05:00:51.098Z,101743.75
2024-05-09T05:03:22.768Z,101745.48
2024-05-09T05:05:54.304Z,101748.23
2024-05-09T05:08:25.481Z,101745.14
2024-05-09T05:10:57.622Z,101747.95
2024-05-09T05:13:32.855Z,101747.05
2024-05-09T05:16:04.765Z,101751.78
2024-05-09T05:18:36.066Z,101750.50
2024-05-09T05:21:07.814Z,101753.63
2024-05-09T05:23:40.566Z,101751.95
2024-05-09T05:26:11.772Z,101752.23
2024-05-09T05:28:42.849Z,101757.67
2024-05-09T05:31:15.463Z,101753.17
2024-05-09T05:33:49.167Z,101752.61
2024-05-09T05:36:20.398Z,101753.46
2024-05-09T05:38:51.757Z,101749.64
2024-05-09T05:41:23.108Z,101755.24
2024-05-09T05:43:54.396Z,101752.16
2024-05-09T05:46:25.752Z,101752.75
2024-05-09T05:48:57.239Z,101748.38
2024-05-09T05:51:28.490Z,101748.94
2024-05-09T05:54:02.191Z,101746.52
2024-05-09T05:56:33.410Z,101747.49
2024-05-09T05:59:04.983Z,101748.16
2024-05-09T06:01:36.099Z,101750.86
2024-05-09T06:04:07.544Z,101753.23
2024-05-09T06:06:38.626Z,101756.20
2024-05-09T06:09:09.707Z,101754.42
2024-05-09T06:11:42.823Z,101756.25
2024-05-09T06:14:14.146Z,101749.86
2024-05-09T06:16:45.338Z,101749.63
2024-05-09T06:19:16.684Z,101749.23
2024-05-09T06:21:47.852Z,101752.70
2024-05-09T06:24:19.642Z,101753.66
2024-05-09T06:26:50.723Z,101754.61
2024-05-09T06:29:21.835Z,101753.33
2024-05-09T06:31:53.006Z,101755.71
2024-05-09T06:34:24.316Z,101753.27
2024-05-09T06:36:55.525Z,101749.73
2024-05-09T06:39:26.710Z,101745.70
2024-05-09T06:41:57.874Z,101738.17
2024-05-09T06:44:29.327Z,101732.27
2024-05-09T06:47:00.631Z,101736.50
2024-05-09T06:49:32.694Z,101740.30
2024-05-09T06:52:04.051Z,101740.02
2024-05-09T06:54:35.108Z,101737.14
2024-05-09T06:57:06.782Z,101728.23
2024-05-09T06:59:38.166Z,101736.15
2024-05-09T07:02:09.340Z,101734.59
2024-05-09T07:04:41.080Z,101735.80
2024-05-09T07:07:12.775Z,101732.95
2024-05-09T07:09:43.948Z,101729.37
2024-05-09T07:12:15.297Z,101726.31
2024-05-09T07:14:46.528Z,101724.98
2024-05-09T07:17:17.724Z,101718.17
2024-05-09T07:19:48.917Z,101718.94
2024-05-09T07:22:20.024Z,101718.12
2024-05-09T07:24:51.274Z,101721.86
2024-05-09T07:27:25.521Z,101717.73
2024-05-09T07:29:57.624Z,101721.11
2024-05-09T07:32:28.983Z,101720.21
2024-05-09T07:35:00.708Z,101722.59
2024-05-09T07:37:31.920Z,101721.00
2024-05-09T07:40:05.790Z,101722.96
2024-05-09T07:42:36.484Z,101724.14
2024-05-09T07:45:29.579Z,101724.28
2024-05-09T07:52:32.397Z,101728.45
2024-05-09T07:53:39.851Z,101727.30
2024-05-09T07:56:17.747Z,101728.17
2024-05-09T07:58:50.410Z,101722.42
2024-05-09T08:01:25.358Z,101721.60
2024-05-09T08:03:56.862Z,101717.69
2024-05-09T08:06:28.522Z,101716.85
2024-05-09T08:09:05.125Z,101719.41
2024-05-09T08:11:39.138Z,101720.37
2024-05-09T08:14:10.395Z,101711.42
2024-05-09T08:16:41.477Z,101708.52
2024-05-09T08:19:12.824Z,101706.22
2024-05-09T08:21:44.107Z,101706.70
2024-05-09T08:24:15.142Z,101701.52
2024-05-09T08:26:46.499Z,101698.61
2024-05-09T08:29:17.628Z,101696.80
2024-05-09T08:31:48.813Z,101698.41
2024-05-09T08:34:20.676Z,101695.11
2024-05-09T08:36:52.247Z,101696.89
2024-05-09T08:39:23.601Z,101693.48
2024-05-09T08:41:54.651Z,101693.31
2024-05-09T08:44:25.841Z,101690.39
2024-05-09T08:46:57.218Z,101700.53
2024-05-09T08:49:28.438Z,101695.86
2024-05-09T08:51:59.753Z,101692.81
2024-05-09T08:54:31.180Z,101693.68
2024-05-09T08:57:03.137Z,101676.55
2024-05-09T08:59:36.692Z,101690.85
2024-05-09T09:02:12.591Z,101695.48
2024-05-09T09:04:48.635Z,101691.93
2024-05-09T09:07:22.365Z,101686.85
2024-05-09T09:09:54.774Z,101686.34
2024-05-09T09:12:25.839Z,101686.80
2024-05-09T09:14:56.894Z,101679.29
2024-05-09T09:17:28.032Z,101681.89
2024-05-09T09:20:01.466Z,101689.12
2024-05-09T09:22:34.824Z,101693.10
2024-05-09T09:25:06.353Z,101693.07
2024-05-09T09:27:37.859Z,101689.75
2024-05-09T09:30:22.934Z,101688.83
2024-05-09T09:33:01.465Z,101692.01
2024-05-09T09:35:32.927Z,101694.05
2024-05-09T09:38:05.804Z,101686.42
2024-05-09T09:40:42.851Z,101690.25
2024-05-09T09:43:22.634Z,101687.50
2024-05-09T09:45:55.759Z,101689.23
2024-05-09T09:48:28.399Z,101693.58
2024-05-09T09:51:00.171Z,101695.63
2024-05-09T09:53:32.510Z,101692.05
2024-05-09T09:56:03.994Z,101686.83
2024-05-09T09:58:37.021Z,101684.45
2024-05-09T10:01:08.399Z,101684.70
2024-05-09T10:03:39.892Z,101681.27
2024-05-09T10:06:13.210Z,101676.99
2024-05-09T10:12:59.704Z,101675.25
2024-05-09T10:15:31.490Z,101672.07
2024-05-09T10:18:08.030Z,101677.20
2024-05-09T10:20:46.230Z,101681.44
2024-05-09T10:23:28.182Z,101685.30
2024-05-09T10:26:04.450Z,101683.47
2024-05-09T10:28:37.262Z,101677.27
2024-05-09T10:31:13.328Z,101669.27
2024-05-09T10:33:49.982Z,101678.73
2024-05-09T10:36:23.242Z,101672.59
2024-05-09T10:38:55.423Z,101669.70
2024-05-09T10:41:26.548Z,101676.38
2024-05-09T10:43:57.601Z,101682.73
2024-05-09T10:46:28.758Z,101682.16
2024-05-09T10:49:03.312Z,101682.66
2024-05-09T10:51:37.025Z,101676.06
2024-05-09T10:54:08.447Z,101671.09
2024-05-09T10:56:39.661Z,101665.98
2024-05-09T10:59:13.197Z,101667.27
2024-05-09T11:01:44.686Z,101665.48
2024-05-09T11:04:16.531Z,101659.88
2024-05-09T11:06:49.317Z,101652.64
2024-05-09T11:09:20.656Z,101651.33
2024-05-09T11:11:51.947Z,101651.11
2024-05-09T11:14:23.100Z,101651.13
2024-05-09T11:17:01.775Z,101647.33
2024-05-09T11:19:34.042Z,101644.35
2024-05-09T11:22:05.694Z,101646.45
2024-05-09T11:24:37.507Z,101642.88
2024-05-09T11:27:08.574Z,101639.92
2024-05-09T11:29:40.759Z,101637.42
2024-05-09T11:32:14.710Z,101637.33
2024-05-09T11:34:45.838Z,101633.20
2024-05-09T11:37:17.131Z,101637.48
2024-05-09T11:39:48.623Z,101632.61
2024-05-09T11:42:20.569Z,101621.09
2024-05-09T11:44:51.743Z,101624.13
2024-05-09T11:47:23.048Z,101621.83
2024-05-09T11:49:56.058Z,101618.75
2024-05-09T11:52:27.429Z,101616.92
2024-05-09T11:54:58.574Z,101614.45
2024-05-09T11:57:30.864Z,101615.98
2024-05-09T12:00:02.333Z,101616.08
2024-05-09T12:02:35.833Z,101611.71
2024-05-09T12:05:07.456Z,101608.16
2024-05-09T12:07:38.708Z,101609.88
2024-05-09T12:10:16.566Z,101606.48
2024-05-09T12:12:50.584Z,101606.50
2024-05-09T12:15:21.697Z,101613.06
2024-05-09T12:17:52.926Z,101605.80
2024-05-09T12:20:32.396Z,101609.34
2024-05-09T12:23:09.480Z,101605.36
2024-05-09T12:25:41.791Z,101600.98
2024-05-09T12:28:12.994Z,101602.36
2024-05-09T12:30:44.375Z,101597.41
2024-05-09T12:33:15.666Z,101596.88
2024-05-09T12:35:49.242Z,101591.80
2024-05-09T12:38:22.044Z,101588.38
2024-05-09T12:40:53.292Z,101583.97
2024-05-09T12:43:24.610Z,101583.25
2024-05-09T12:45:56.003Z,101577.33
2024-05-09T12:48:27.230Z,101575.45
2024-05-09T12:50:58.358Z,101575.63
2024-05-09T12:53:29.464Z,101572.66
2024-05-09T12:56:02.918Z,101568.46
2024-05-09T12:58:35.576Z,101568.98
2024-05-09T13:01:07.051Z,101563.52
2024-05-09T13:03:38.355Z,101563.97
2024-05-09T13:06:09.790Z,101558.64
2024-05-09T13:08:41.244Z,101554.05
2024-05-09T13:11:12.865Z,101552.27
2024-05-09T13:13:45.204Z,101550.92
2024-05-09T13:16:16.442Z,101554.88
2024-05-09T13:18:47.794Z,101547.92
2024-05-09T13:21:18.874Z,101548.36
2024-05-09T13:23:50.050Z,101542.96
2024-05-09T13:26:21.274Z,101539.54
2024-05-09T13:28:52.392Z,101533.25
2024-05-09T13:31:23.595Z,101531.33
2024-05-09T13:33:54.788Z,101531.25
2024-05-09T13:36:26.068Z,101529.58
2024-05-09T13:38:57.380Z,101523.80
2024-05-09T13:41:28.604Z,101518.32
2024-05-09T13:43:59.708Z,101515.30
2024-05-09T13:46:31.038Z,101518.13
2024-05-09T13:49:02.393Z,101515.06
2024-05-09T13:51:33.676Z,101510.59
2024-05-09T13:54:05.275Z,101509.04
2024-05-09T13:56:39.102Z,101500.98
2024-05-09T13:59:10.788Z,101502.11
2024-05-09T14:01:41.990Z,101498.39
2024-05-09T14:04:13.540Z,101493.30
2024-05-09T14:06:44.943Z,101488.56
2024-05-09T14:09:16.296Z,101486.69
2024-05-09T14:11:47.526Z,101475.34
2024-05-09T14:14:18.627Z,101480.43
2024-05-09T14:16:50.034Z,101479.58
2024-05-09T14:19:21.412Z,101481.01
2024-05-09T14:21:52.564Z,101476.84
2024-05-09T14:24:23.651Z,101474.47
2024-05-09T14:26:54.796Z,101466.77
2024-05-09T14:29:25.996Z,101464.67
2024-05-09T14:31:57.048Z,101466.88
2024-05-09T14:34:28.391Z,101458.22
2024-05-09T14:36:59.747Z,101456.69
2024-05-09T14:39:30.883Z,101454.35
2024-05-09T14:42:02.091Z,101447.16
2024-05-09T14:44:33.400Z,101448.23
2024-05-09T14:47:04.952Z,101441.85
2024-05-09T14:49:36.089Z,101444.25
2024-05-09T14:52:08.191Z,101441.36
2024-05-09T14:54:39.472Z,101439.59
2024-05-09T14:57:11.753Z,101434.87
2024-05-09T14:59:43.018Z,101434.27
2024-05-09T15:02:14.498Z,101432.63
2024-05-09T15:04:45.833Z,101425.55
2024-05-09T15:07:17.510Z,101421.63
2024-05-09T15:09:48.844Z,101422.17
2024-05-09T15:12:20.119Z,101424.94
2024-05-09T15:14:52.068Z,101417.83
2024-05-09T15:17:23.171Z,101412.73
2024-05-09T15:19:54.818Z,101411.30
2024-05-09T15:22:26.241Z,101414.29
2024-05-09T15:24:57.426Z,101414.80
2024-05-09T15:27:28.808Z,101411.77
2024-05-09T15:30:02.013Z,101407.41
2024-05-09T15:32:33.624Z,101406.87
2024-05-09T15:35:05.259Z,101405.23
2024-05-09T15:37:36.662Z,101399.19
2024-05-09T15:40:15.336Z,101394.16
2024-05-09T15:42:53.096Z,101392.19
2024-05-09T15:45:24.308Z,101389.39
2024-05-09T15:47:55.431Z,101385.73
2024-05-09T15:50:36.484Z,101386.28
2024-05-09T15:53:12.992Z,101386.14
2024-05-09T15:55:45.074Z,101383.45
2024-05-09T15:58:16.528Z,101382.95
2024-05-09T16:00:49.756Z,101378.77
2024-05-09T16:03:22.919Z,101377.91
2024-05-09T16:05:57.158Z,101368.55
2024-05-09T16:08:28.467Z,101373.17
2024-05-09T16:10:59.667Z,101370.09
2024-05-09T16:13:30.958Z,101365.96
2024-05-09T16:16:02.814Z,101362.18
2024-05-09T16:18:34.054Z,101365.57
2024-05-09T16:21:05.688Z,101363.88
2024-05-09T16:23:39.220Z,101358.65
2024-05-09T16:26:10.407Z,101357.94
2024-05-09T16:28:41.577Z,101358.13
2024-05-09T16:31:12.706Z,101352.67
2024-05-09T16:33:44.078Z,101355.33
2024-05-09T16:36:15.280Z,101355.71
2024-05-09T16:38:46.370Z,101357.91
2024-05-09T16:41:17.439Z,101358.73
2024-05-09T16:43:48.624Z,101359.64
2024-05-09T16:46:20.080Z,101354.64
2024-05-09T16:48:51.673Z,101358.66
2024-05-09T16:51:22.804Z,101354.61
2024-05-09T16:53:54.123Z,101355.65
2024-05-09T16:56:27.026Z,101351.92
2024-05-09T16:58:58.502Z,101352.34
2024-05-09T17:01:30.632Z,101350.10
2024-05-09T17:04:02.044Z,101352.38
2024-05-09T17:06:33.320Z,101349.42
2024-05-09T17:09:11.300Z,101348.34
2024-05-09T17:11:44.016Z,101346.63
2024-05-09T17:14:15.766Z,101343.55
2024-05-09T17:16:47.237Z,101345.15
2024-05-09T17:19:18.528Z,101347.19
2024-05-09T17:21:49.776Z,101346.98
2024-05-09T17:24:21.029Z,101339.58
2024-05-09T17:26:52.975Z,101343.42
2024-05-09T17:29:24.221Z,101342.54
2024-05-09T17:31:55.372Z,101339.90
2024-05-09T17:34:27.444Z,101338.88
2024-05-09T17:37:00.121Z,101343.29
2024-05-09T17:39:31.280Z,101344.11
2024-05-09T17:42:02.394Z,101337.48
2024-05-09T17:44:33.642Z,101339.48
2024-05-09T17:47:06.118Z,101342.45
2024-05-09T17:49:37.322Z,101338.25
2024-05-09T17:52:09.205Z,101331.90
2024-05-09T17:54:40.530Z,101335.16
2024-05-09T17:57:11.794Z,101336.09
2024-05-09T17:59:42.900Z,101338.39
2024-05-09T18:02:14.524Z,101336.10
2024-05-09T18:04:45.887Z,101332.70
2024-05-09T18:07:17.232Z,101334.55
2024-05-09T18:09:48.381Z,101332.50
2024-05-09T18:12:19.614Z,101333.45
2024-05-09T18:14:50.821Z,101338.34
2024-05-09T18:17:25.240Z,101338.09
2024-05-09T18:19:56.974Z,101336.94
2024-05-09T18:22:28.261Z,101342.40
2024-05-09T18:24:59.411Z,101338.58
2024-05-09T18:27:30.807Z,101339.54
2024-05-09T18:30:01.976Z,101341.75
2024-05-09T18:32:33.297Z,101342.66
2024-05-09T18:35:04.743Z,101342.02
2024-05-09T18:37:35.933Z,101345.89
2024-05-09T18:40:12.194Z,101346.79
2024-05-09T18:42:49.741Z,101348.95
2024-05-09T18:45:20.906Z,101349.98
2024-05-09T18:47:52.311Z,101350.83
2024-05-09T18:50:31.962Z,101349.05
2024-05-09T18:53:07.841Z,101347.40
2024-05-09T18:55:39.053Z,101354.11
2024-05-09T18:58:10.472Z,101358.02
2024-05-09T19:00:45.196Z,101358.17
2024-05-09T19:03:18.753Z,101359.99
2024-05-09T19:05:50.314Z,101355.60
2024-05-09T19:08:21.490Z,101357.79
2024-05-09T19:10:52.785Z,101358.53
2024-05-09T19:13:24.786Z,101359.22
2024-05-09T19:15:56.687Z,101358.90
2024-05-09T19:18:27.923Z,101359.60
2024-05-09T19:20:59.055Z,101358.48
2024-05-09T19:23:32.533Z,101357.14
2024-05-09T19:26:03.874Z,101364.98
2024-05-09T19:28:35.041Z,101365.04
2024-05-09T19:31:06.478Z,101363.23
2024-05-09T19:33:38.349Z,101360.86
2024-05-09T19:36:10.323Z,101369.48
2024-05-09T19:38:41.529Z,101367.85
2024-05-09T19:41:12.654Z,101368.11
2024-05-09T19:43:43.904Z,101369.22
2024-05-09T19:46:15.308Z,101371.64
2024-05-09T19:48:46.554Z,101375.98
2024-05-09T19:51:17.851Z,101373.02
2024-05-09T19:53:50.453Z,101373.77
2024-05-09T19:56:21.720Z,101378.02
2024-05-09T19:58:52.890Z,101377.95
2024-05-09T20:01:24.171Z,101380.61
2024-05-09T20:03:58.776Z,101376.73
2024-05-09T20:06:30.554Z,101375.96
2024-05-09T20:09:01.649Z,101376.67
2024-05-09T20:11:33.299Z,101373.27
2024-05-09T20:14:04.524Z,101376.89
2024-05-09T20:16:35.744Z,101373.06
2024-05-09T20:19:07.207Z,101374.04
2024-05-09T20:21:43.507Z,101373.50
2024-05-09T20:24:14.750Z,101372.25
2024-05-09T20:26:45.859Z,101372.00
2024-05-09T20:29:17.056Z,101368.66
2024-05-09T20:31:48.213Z,101372.23
2024-05-09T20:34:19.298Z,101368.11
2024-05-09T20:36:50.500Z,101368.98
2024-05-09T20:39:26.932Z,101369.34
2024-05-09T20:41:58.715Z,101368.89
2024-05-09T20:44:30.123Z,101369.86
2024-05-09T20:47:01.246Z,101365.16
2024-05-09T20:49:32.530Z,101366.74
2024-05-09T20:52:03.758Z,101367.98
2024-05-09T20:54:34.917Z,101369.14
2024-05-09T20:57:06.755Z,101369.41
2024-05-09T20:59:39.918Z,101368.21
2024-05-09T21:02:11.575Z,101369.29
2024-05-09T21:04:43.004Z,101367.18
2024-05-09T21:07:14.346Z,101367.80
2024-05-09T21:09:47.229Z,101364.79
2024-05-09T21:12:18.480Z,101368.55
2024-05-09T21:14:49.648Z,101364.70
2024-05-09T21:17:20.974Z,101365.79
2024-05-09T21:19:52.351Z,101368.41
2024-05-09T21:22:24.219Z,101369.96
2024-05-09T21:24:55.310Z,101366.48
2024-05-09T21:27:26.588Z,101369.11
2024-05-09T21:29:57.675Z,101368.70
2024-05-09T21:32:29.140Z,101370.41
2024-05-09T21:35:00.303Z,101366.14
2024-05-09T21:37:31.528Z,101369.43
2024-05-09T21:40:09.158Z,101366.05
2024-05-09T21:42:42.518Z,101362.69
2024-05-09T21:45:13.711Z,101357.34
2024-05-09T21:47:45.233Z,101360.30
2024-05-09T21:50:22.773Z,101360.67
2024-05-09T21:52:59.548Z,101359.04
2024-05-09T21:55:30.679Z,101357.77
2024-05-09T21:58:01.946Z,101361.40
2024-05-09T22:00:37.768Z,101357.83
2024-05-09T22:03:11.896Z,101362.39
2024-05-09T22:05:44.872Z,101361.45
2024-05-09T22:08:16.619Z,101356.38
2024-05-09T22:10:47.686Z,101353.38
2024-05-09T22:13:20.061Z,101354.17
2024-05-09T22:15:51.375Z,101361.04
2024-05-09T22:18:22.728Z,101357.23
2024-05-09T22:20:55.026Z,101359.59
2024-05-09T22:23:26.117Z,101359.61
2024-05-09T22:25:57.362Z,101356.83
2024-05-09T22:28:28.478Z,101357.92
2024-05-09T22:30:59.655Z,101358.05
2024-05-09T22:33:31.049Z,101355.41
2024-05-09T22:36:02.323Z,101354.38
2024-05-09T22:38:33.512Z,101354.84
2024-05-09T22:41:07.652Z,101357.10
2024-05-09T22:43:38.837Z,101354.15
2024-05-09T22:46:10.243Z,101359.39
2024-05-09T22:48:41.684Z,101356.91
2024-05-09T22:51:14.304Z,101354.80
2024-05-09T22:53:45.363Z,101355.63
2024-05-09T22:56:26.610Z,101357.73
2024-05-09T22:58:57.966Z,101355.20
2024-05-09T23:01:29.425Z,101358.20
2024-05-09T23:04:00.699Z,101355.98
2024-05-09T23:06:33.046Z,101353.80
2024-05-09T23:09:04.239Z,101353.30
2024-05-09T23:11:35.405Z,101351.27
2024-05-09T23:14:06.770Z,101348.75
2024-05-09T23:16:38.120Z,101346.30
2024-05-09T23:19:10.139Z,101341.33
2024-05-09T23:21:41.672Z,101342.20
2024-05-09T23:24:12.912Z,101340.48
2024-05-09T23:26:44.691Z,101338.52
2024-05-09T23:29:16.125Z,101336.40
2024-05-09T23:31:47.476Z,101335.43
2024-05-09T23:34:18.836Z,101330.63
2024-05-09T23:36:50.041Z,101328.52
2024-05-09T23:39:21.288Z,101327.11
2024-05-09T23:41:52.450Z,101325.73
2024-05-09T23:44:23.506Z,101324.55
2024-05-09T23:46:54.680Z,101326.51
2024-05-09T23:49:26.039Z,101328.85
2024-05-09T23:51:57.182Z,101326.90
2024-05-09T23:54:28.275Z,101331.95
2024-05-09T23:56:59.372Z,101328.44
2024-05-09T23:59:30.574Z,101330.65
